Latest Coastal Weather Observations for Devonport Airport

IDT60701

Issued at 1:32 pm EST Saturday 30 July 2016 (issued every 10 minutes, with the page automatically refreshed every 10 minutes)

About coastal observations | Map of coastal stations | Coastal observations for TAS | Marine services | Other Formats
Station Details ID: 091126 Name: DEVONPORT AIRPORT Lat: -41.17 Lon: 146.43 Height: 8.0 m
Data from the previous 72 hours. | See also: Recent months at Devonport Airport
Date/Time
EST
Temp
°C
Wind Pressure Rain since
9am
mm
Weather Cloud Vis
km
Sea
Height
m
Swell
Dir  Spd
kts
Gust
kts
hPa Trend Height
m
Period
s
Dir
30/01:30pm 9.5 NE 5 7 1016.4 - 0.0 - Cloudy 10 - - - -
30/01:00pm 9.4 ENE 5 6 1016.9 - 0.0 - Cloudy 10 - - - -
30/12:30pm 9.2 NNE 6 9 1017.6 - 0.0 - Cloudy 10 - - - -
30/12:00pm 9.0 NNE 6 7 1018.1 - 0.0 - Mostly cloudy 10 - - - -
30/11:30am 9.5 ENE 2 5 1018.9 - 0.0 - - 10 - - - -
30/11:00am 8.0 SSE 3 5 1019.2 - 0.0 - - 10 - - - -
30/10:30am 7.3 S 3 5 1019.4 - 0.0 - - 10 - - - -
30/10:00am 6.2 S 5 6 1019.5 - 0.0 - - 10 - - - -
30/09:30am 5.0 S 4 5 1019.5 - 0.0 - - 10 - - - -
30/09:00am 3.9 WSW 3 4 1019.7 - 0.0 - - 10 - - - -
30/08:30am 2.9 W 4 7 1019.7 - 0.0 - - 10 - - - -
30/08:00am 2.1 S 8 10 1019.4 - 0.0 - - 10 - - - -
30/07:30am 1.2 S 7 8 1019.4 - 0.0 - - 10 - - - -
30/07:00am 1.0 S 8 9 1019.3 - 0.0 - - 10 - - - -
30/06:30am 1.2 S 9 11 1019.5 - 0.0 - - 10 - - - -
30/06:00am 1.3 S 8 10 1019.1 - 0.0 - - 10 - - - -
30/05:30am 2.2 SSE 9 10 1018.7 - 0.0 - - 10 - - - -
30/05:00am 2.0 S 6 8 1019.0 - 0.0 - - 10 - - - -
30/04:30am 2.4 SW 4 6 1019.1 - 0.0 - - 10 - - - -
30/04:00am 3.5 SW 4 6 1018.8 - 0.0 - - 10 - - - -
30/03:30am 3.7 WSW 8 9 1018.8 - 0.0 - - 10 - - - -
30/03:00am 4.2 WSW 6 6 1018.5 - 0.0 - - 10 - - - -
30/02:30am 4.6 W 5 7 1018.6 - 0.0 - - 10 - - - -
30/02:00am 5.1 WSW 7 8 1018.2 - 0.0 - - 10 - - - -
30/01:30am 5.0 W 6 8 1018.2 - 0.0 - - 10 - - - -
30/01:00am 5.1 W 4 7 1018.1 - 0.0 - - 10 - - - -
30/12:30am 6.4 WSW 3 4 1017.9 - 0.0 - - 10 - - - -
30/12:00am 7.0 WNW 2 4 1018.0 - 0.0 - - 10 - - - -
 
Date/Time
EST
Temp
°C
Wind Pressure Rain since
9am
mm
Weather Cloud Vis
km
Sea
Height
m
Swell
Dir  Spd
kts
Gust
kts
hPa Trend Height
m
Period
s
Dir
29/11:30pm 7.5 WSW 8 12 1017.6 - 0.0 - - 10 - - - -
29/11:00pm 7.6 WSW 11 14 1017.1 - 0.0 - - 10 - - - -
29/10:30pm 8.5 W 11 15 1017.4 - 0.0 - - 10 - - - -
29/10:00pm 8.9 WSW 13 19 1016.5 - 0.0 - - 10 - - - -
29/09:30pm 8.6 WSW 17 24 1016.2 - 0.0 - - 10 - - - -
29/09:00pm 9.7 WSW 13 23 1015.7 - 0.0 - - 10 - - - -
29/08:39pm 9.3 WSW 15 25 1015.1 - 0.0 - - 10 - - - -
29/08:30pm 9.9 WSW 21 28 1014.5 - 0.0 - - 10 - - - -
29/08:18pm 10.1 SW 17 26 1014.6 - 0.0 - - 10 - - - -
29/08:00pm 9.9 SW 6 14 1014.8 - 0.0 - - 10 - - - -
29/07:30pm 10.2 W 10 13 1014.0 - 0.0 - Partly cloudy 10 - - - -
29/07:00pm 10.4 W 13 19 1013.0 - 0.0 - - 10 - - - -
29/06:30pm 11.2 W 18 23 1012.3 - 0.0 - - 10 - - - -
29/06:00pm 11.7 WSW 18 24 1011.8 - 0.0 - - 10 - - - -
29/05:30pm 12.0 W 15 29 1011.3 - 0.0 - Partly cloudy 10 - - - -
29/05:00pm 12.3 W 16 25 1010.8 - 0.0 - Partly cloudy 10 - - - -
29/04:30pm 12.9 W 16 23 1010.5 - 0.0 - Partly cloudy 10 - - - -
29/04:08pm 13.0 W 20 30 1010.2 - 0.0 - Partly cloudy 10 - - - -
29/04:00pm 13.0 W 18 25 1010.3 - 0.0 - Partly cloudy 10 - - - -
29/03:30pm 13.0 W 14 19 1010.3 - 0.0 - Partly cloudy 10 - - - -
29/03:01pm 13.7 W 22 32 1010.1 - 0.0 - Partly cloudy 10 - - - -
29/03:00pm 13.7 W 23 32 1010.0 - 0.0 - Mostly cloudy 10 - - - -
29/02:46pm 14.0 W 23 33 1009.9 - 0.0 - Partly cloudy 10 - - - -
29/02:30pm 14.1 W 23 31 1009.5 - 0.0 - Partly cloudy 10 - - - -
29/02:06pm 14.2 W 23 33 1009.4 - 0.0 - Partly cloudy 10 - - - -
29/02:00pm 14.4 WNW 22 28 1009.6 - 0.0 - Partly cloudy 10 - - - -
29/01:33pm 13.9 W 26 36 1009.7 - 0.0 - Partly cloudy 10 - - - -
29/01:30pm 13.9 W 28 36 1009.6 - 0.0 - Partly cloudy 10 - - - -
29/01:07pm 14.6 W 25 38 1009.6 - 0.0 - Partly cloudy 10 - - - -
29/01:00pm 14.9 W 22 30 1009.8 - 0.0 - Partly cloudy 10 - - - -
29/12:42pm 13.5 W 18 28 1010.2 - 0.0 - Partly cloudy 10 - - - -
29/12:30pm 14.5 W 20 28 1010.4 - 0.0 - Partly cloudy 10 - - - -
29/12:00pm 14.1 WNW 21 28 1010.6 - 0.0 - Cloudy 10 - - - -
29/11:30am 13.1 WNW 19 25 1010.9 - 0.0 - Partly cloudy 10 - - - -
29/11:00am 12.8 WNW 18 22 1011.2 - 0.0 - Partly cloudy 10 - - - -
29/10:30am 12.7 WNW 17 23 1011.3 - 0.0 - Partly cloudy 10 - - - -
29/10:00am 12.1 WNW 19 24 1011.4 - 0.0 - Partly cloudy 10 - - - -
29/09:30am 11.7 WNW 20 25 1011.6 - 0.0 - Partly cloudy 10 - - - -
29/09:00am 11.5 WNW 18 25 1011.9 - 0.0 - - 10 - - - -
29/08:30am 11.1 WNW 21 25 1011.8 - 0.0 - - 10 - - - -
29/08:00am 10.7 WNW 18 22 1011.9 - 0.0 - - 10 - - - -
29/07:30am 10.6 WNW 20 25 1011.8 - 0.0 - Partly cloudy 10 - - - -
29/07:00am 10.7 WNW 19 25 1011.9 - 0.0 - - 10 - - - -
29/06:30am 10.6 WNW 20 24 1012.0 - 0.0 - - 10 - - - -
29/06:00am 10.5 WNW 21 27 1011.8 - 0.0 - Cloudy 10 - - - -
29/05:30am 10.4 NW 22 26 1011.9 - 0.0 - - 10 - - - -
29/05:00am 10.7 WNW 20 25 1012.2 - 0.0 - - 10 - - - -
29/04:30am 10.7 WNW 22 27 1012.2 - 0.0 - Partly cloudy 10 - - - -
29/04:00am 10.8 WNW 19 25 1012.5 - 0.0 - Cloudy 10 - - - -
29/03:30am 10.6 WNW 18 23 1012.7 - 0.0 - Partly cloudy 10 - - - -
29/03:00am 11.0 WNW 18 25 1013.0 - 0.0 - Cloudy 10 - - - -
29/02:30am 10.5 WNW 15 19 1013.4 - 0.0 - Partly cloudy 10 - - - -
29/02:00am 10.4 NW 16 21 1013.4 - 0.0 - Cloudy 10 - - - -
29/01:30am 10.6 NW 15 20 1013.7 - 0.0 - Partly cloudy 10 - - - -
29/01:00am 10.6 NW 17 21 1013.9 - 0.0 - Partly cloudy 10 - - - -
29/12:34am 10.5 WNW 15 20 1014.2 - 0.0 - Partly cloudy 10 - - - -
29/12:30am 10.5 WNW 16 21 1014.3 - 0.0 - Partly cloudy 10 - - - -
29/12:00am 10.8 WNW 18 23 1014.4 - 0.0 - Cloudy 10 - - - -
 
Date/Time
EST
Temp
°C
Wind Pressure Rain since
9am
mm
Weather Cloud Vis
km
Sea
Height
m
Swell
Dir  Spd
kts
Gust
kts
hPa Trend Height
m
Period
s
Dir
28/11:52pm 10.6 WNW 17 23 1014.5 - 0.0 - Partly cloudy 10 - - - -
28/11:30pm 10.4 WNW 16 20 1014.6 - 0.0 - Partly cloudy 10 - - - -
28/11:00pm 10.0 WNW 16 22 1014.8 - 0.0 - Partly cloudy 10 - - - -
28/10:30pm 10.1 WNW 17 21 1015.0 - 0.0 - Partly cloudy 10 - - - -
28/10:00pm 10.2 WNW 13 16 1015.3 - 0.0 - Partly cloudy 10 - - - -
28/09:30pm 9.4 W 8 11 1015.7 - 0.0 - Partly cloudy 10 - - - -
28/09:00pm 10.0 W 14 18 1015.3 - 0.0 - Mostly clear 10 - - - -
28/08:30pm 10.1 W 13 17 1015.3 - 0.0 - Partly cloudy 10 - - - -
28/08:00pm 10.5 W 16 22 1015.5 - 0.0 - Partly cloudy 10 - - - -
28/07:30pm 10.6 WNW 17 21 1015.2 - 0.0 - Partly cloudy 10 - - - -
28/07:00pm 10.9 WNW 17 23 1015.1 - 0.0 - Partly cloudy 10 - - - -
28/06:30pm 11.0 WNW 18 24 1014.8 - 0.0 - Partly cloudy 10 - - - -
28/06:00pm 11.2 WNW 17 23 1014.5 - 0.0 - Cloudy 10 - - - -
28/05:30pm 11.1 W 17 22 1014.0 - 0.0 - Cloudy 10 - - - -
28/05:00pm 11.6 W 14 22 1014.3 - 0.0 - Cloudy 10 - - - -
28/04:30pm 11.9 W 22 33 1014.1 - 0.0 - Partly cloudy 10 - - - -
28/04:27pm 12.1 W 20 33 1014.0 - 0.0 - Partly cloudy 10 - - - -
28/04:00pm 12.4 WNW 15 20 1013.4 - 0.0 - Partly cloudy 10 - - - -
28/03:30pm 13.2 WNW 18 24 1012.9 - 0.0 - Partly cloudy 10 - - - -
28/03:00pm 13.7 W 20 27 1012.4 - 0.0 - Mostly clear 10 - - - -
28/02:30pm 13.9 W 23 28 1012.1 - 0.0 - Partly cloudy 10 - - - -
28/02:00pm 14.0 W 23 29 1011.8 - 0.0 - Partly cloudy 10 - - - -
28/01:30pm 13.4 W 25 35 1012.1 - 0.0 - Partly cloudy 10 - - - -
28/01:23pm 13.6 W 22 35 1012.1 - 0.0 - Partly cloudy 10 - - - -
28/01:00pm 13.9 W 24 31 1012.0 - 0.0 - Partly cloudy 10 - - - -
28/12:30pm 13.3 W 25 33 1012.4 - 0.0 - Partly cloudy 10 - - - -
28/12:00pm 13.5 W 22 30 1012.8 - 0.0 - Cloudy 10 - - - -
28/11:30am 13.5 W 19 24 1013.0 - 0.0 - Partly cloudy 10 - - - -
28/11:00am 13.0 WNW 20 27 1013.3 - 0.0 - Partly cloudy 10 - - - -
28/10:30am 12.5 WNW 18 23 1013.0 - 0.0 - Partly cloudy 10 - - - -
28/10:00am 12.8 WNW 18 25 1012.8 - 0.0 - Partly cloudy 10 - - - -
28/09:30am 12.4 WNW 17 22 1012.7 - 0.0 - Partly cloudy 10 - - - -
28/09:00am 12.0 WNW 18 23 1012.4 - 0.0 - - 10 - - - -
28/08:30am 11.5 WNW 17 24 1012.3 - 0.0 - Partly cloudy 10 - - - -
28/08:00am 11.2 WNW 17 23 1012.0 - 0.0 - - 10 - - - -
28/07:30am 10.9 W 19 24 1011.6 - 0.0 - - 10 - - - -
28/07:00am 11.2 WNW 21 26 1011.5 - 0.0 - Partly cloudy 10 - - - -
28/06:30am 11.3 WNW 20 26 1011.3 - 0.0 - - 10 - - - -
28/06:00am 11.2 WNW 20 25 1011.2 - 0.0 - Mostly clear 10 - - - -
28/05:30am 11.1 WNW 19 23 1011.2 - 0.0 - Partly cloudy 10 - - - -
28/05:00am 10.9 WNW 18 23 1011.2 - 0.0 - Partly cloudy 10 - - - -
28/04:30am 10.6 WNW 17 22 1011.5 - 0.0 - Partly cloudy 10 - - - -
28/04:00am 10.2 WNW 15 20 1011.8 - 0.0 - - 10 - - - -
28/03:30am 9.9 WNW 15 18 1011.7 - 0.0 - - 10 - - - -
28/03:00am 9.9 WNW 15 18 1012.3 - 0.0 - - 10 - - - -
28/02:30am 9.7 W 15 19 1011.9 - 0.0 - - 10 - - - -
28/02:00am 9.8 W 15 20 1012.1 - 0.0 - - 10 - - - -
28/01:30am 9.5 W 9 13 1012.1 - 0.0 - - 10 - - - -
28/01:00am 9.1 W 7 11 1012.2 - 0.0 - - 10 - - - -
28/12:30am 8.9 W 8 10 1012.2 - 0.0 - - 10 - - - -
28/12:00am 9.4 W 12 15 1012.2 - 0.0 - - 10 - - - -
 
Date/Time
EST
Temp
°C
Wind Pressure Rain since
9am
mm
Weather Cloud Vis
km
Sea
Height
m
Swell
Dir  Spd
kts
Gust
kts
hPa Trend Height
m
Period
s
Dir
27/11:30pm 10.5 W 16 20 1011.9 - 0.0 - - 10 - - - -
27/11:00pm 10.4 W 13 15 1011.8 - 0.0 - - 10 - - - -
27/10:30pm 10.6 WNW 14 17 1011.5 - 0.0 - - 10 - - - -
27/10:00pm 10.9 WNW 17 22 1011.1 - 0.0 - - 10 - - - -
27/09:30pm 10.9 W 15 19 1011.0 - 0.0 - Partly cloudy 10 - - - -
27/09:00pm 10.5 WNW 17 22 1010.7 - 0.0 - Partly cloudy 10 - - - -
27/08:30pm 10.2 WNW 21 28 1009.9 - 0.0 - - 10 - - - -
27/08:00pm 9.7 WNW 23 29 1009.5 - 0.0 - - 10 - - - -
27/07:30pm 9.6 WNW 22 28 1009.4 - 0.0 - - 10 - - - -
27/07:00pm 9.5 WNW 24 30 1009.2 - 0.0 - - 10 - - - -
27/06:30pm 9.6 WNW 23 29 1008.9 - 0.0 - - 10 - - - -
27/06:00pm 9.5 WNW 22 26 1009.1 - 0.0 - - 10 - - - -
27/05:30pm 9.3 WNW 24 30 1008.6 - 0.0 - Partly cloudy 10 - - - -
27/05:00pm 9.3 WNW 23 29 1008.1 - 0.0 - Partly cloudy 10 - - - -
27/04:30pm 9.4 WNW 19 26 1008.5 - 0.0 - Partly cloudy 10 - - - -
27/04:00pm 9.7 W 16 22 1008.9 - 0.0 - Partly cloudy 10 - - - -
27/03:30pm 9.6 W 20 27 1008.8 - 0.0 - Partly cloudy 10 - - - -
27/03:05pm 10.2 W 17 27 1008.6 - 0.0 - Partly cloudy 10 - - - -
27/03:00pm 10.1 W 18 27 1008.6 - 0.0 Drizzle Mostly cloudy 10 - - - -
27/02:34pm 9.4 W 17 28 1008.7 - 0.0 - Partly cloudy 10 - - - -
27/02:30pm 10.0 W 16 20 1008.7 - 0.0 - Partly cloudy 10 - - - -
27/02:00pm 10.0 W 17 24 1008.3 - 0.0 - Partly cloudy 10 - - - -
27/01:57pm 9.9 W 18 24 1008.4 - 0.0 - Partly cloudy 10 - - - -

Other Formats:

Comma delimited format used in spreadsheet applications
http://www.bom.gov.au/fwo/IDT60701/IDT60701.95960.axf

JavaScript Object Notation format (JSON) in row-major order
http://www.bom.gov.au/fwo/IDT60701/IDT60701.95960.json